高雄國際航空站 - 塔台/地面席

METAR RCKH 240800Z 32007KT 280V340 9999 FEW010CB FEW013 SCT040 33/22 Q1007 NOSIG RMK CB E A2975=

站台狀態:Offline
最後更新:2020-09-24 16:00:02